Wetterdaten: Woche 10.03.03 - 16.03.03 (KW11)
Datum Zeit Temperatur Luftfeuchte Luftdruck Regenmenge Wind Richtung Taupunkt Windchill
10.03.2003 00:00 2.1 C 87 % 1029.0 hPa 0.0 l/m 0.0 km/h (0 Bft) N 0.2 C 2.1 C
10.03.2003 01:00 1.1 C 92 % 1029.3 hPa 0.0 l/m 0.0 km/h (0 Bft) N -0.1 C 1.1 C
10.03.2003 02:00 0.6 C 94 % 1030.0 hPa 0.0 l/m 2.3 km/h (1 Bft) O -0.2 C 0.4 C
10.03.2003 03:00 -0.1 C 95 % 1030.0 hPa 0.0 l/m 1.5 km/h (1 Bft) O-SO -0.9 C -0.4 C
10.03.2003 04:00 -0.7 C 95 % 1030.0 hPa 0.0 l/m 0.3 km/h (0 Bft) N -1.5 C -0.7 C
10.03.2003 05:00 -1.2 C 95 % 1030.0 hPa 0.0 l/m 0.0 km/h (0 Bft) N -1.9 C -1.2 C
10.03.2003 06:00 -1.4 C 96 % 1030.0 hPa 0.0 l/m 0.8 km/h (0 Bft) O-SO -2.0 C -1.6 C
10.03.2003 07:00 -1.6 C 96 % 1030.0 hPa 0.0 l/m 0.0 km/h (0 Bft) N -2.1 C -1.6 C
10.03.2003 08:00 0.1 C 99 % 1030.0 hPa 0.0 l/m 0.3 km/h (0 Bft) O-SO -0.1 C 0.1 C
10.03.2003 09:00 2.6 C 88 % 1030.0 hPa 0.0 l/m 0.0 km/h (0 Bft) N 0.7 C 2.6 C
10.03.2003 10:00 6.1 C 65 % 1030.0 hPa 0.0 l/m 1.8 km/h (1 Bft) SO -0.1 C 5.7 C
10.03.2003 11:00 9.9 C 50 % 1030.0 hPa 0.0 l/m 1.5 km/h (1 Bft) W-NW -0.1 C 9.8 C
10.03.2003 12:00 14.1 C 40 % 1029.5 hPa 0.0 l/m 9.3 km/h (2 Bft) SO 0.6 C 14.1 C
10.03.2003 13:00 16.6 C 34 % 1028.9 hPa 0.0 l/m 7.0 km/h (2 Bft) S-SO 0.5 C 16.6 C
10.03.2003 14:00 17.9 C 33 % 1028.0 hPa 0.0 l/m 7.5 km/h (2 Bft) S-SO 1.5 C 17.9 C
10.03.2003 15:00 18.0 C 31 % 1026.9 hPa 0.0 l/m 7.8 km/h (2 Bft) SO 0.8 C 18.0 C
10.03.2003 16:00 18.0 C 30 % 1026.9 hPa 0.0 l/m 5.9 km/h (2 Bft) SO -0.0 C 18.0 C
10.03.2003 17:00 17.0 C 31 % 1026.9 hPa 0.0 l/m 1.4 km/h (1 Bft) SO -0.2 C 17.0 C
10.03.2003 18:00 13.9 C 40 % 1026.9 hPa 0.0 l/m 4.2 km/h (1 Bft) O-SO 0.4 C 13.9 C
10.03.2003 19:00 10.6 C 50 % 1027.9 hPa 0.0 l/m 1.8 km/h (1 Bft) O-SO 0.6 C 10.6 C
10.03.2003 20:00 8.2 C 63 % 1028.0 hPa 0.0 l/m 3.3 km/h (1 Bft) O-SO 1.4 C 7.7 C
10.03.2003 21:00 6.7 C 71 % 1028.0 hPa 0.0 l/m 1.5 km/h (1 Bft) O-SO 1.8 C 6.5 C
10.03.2003 22:00 5.4 C 74 % 1028.0 hPa 0.0 l/m 0.6 km/h (0 Bft) O-SO 1.3 C 5.4 C
10.03.2003 23:00 4.9 C 75 % 1028.0 hPa 0.0 l/m 0.0 km/h (0 Bft) N 0.9 C 4.9 C
11.03.2003 00:00 4.5 C 79 % 1028.0 hPa 0.0 l/m 0.0 km/h (0 Bft) N 1.2 C 4.5 C
11.03.2003 01:00 4.0 C 81 % 1028.0 hPa 0.0 l/m 0.0 km/h (0 Bft) N 1.0 C 4.0 C
11.03.2003 02:00 3.5 C 84 % 1028.0 hPa 0.0 l/m 0.0 km/h (0 Bft) N 1.0 C 3.5 C
11.03.2003 03:00 3.1 C 86 % 1027.0 hPa 0.0 l/m 0.0 km/h (0 Bft) O-SO 1.1 C 3.1 C
11.03.2003 04:00 3.5 C 89 % 1026.9 hPa 0.0 l/m 0.5 km/h (0 Bft) O-SO 1.9 C 3.4 C
11.03.2003 05:00 3.6 C 89 % 1026.9 hPa 0.0 l/m 1.3 km/h (1 Bft) O-SO 2.0 C 3.4 C
11.03.2003 06:00 3.2 C 89 % 1026.9 hPa 0.0 l/m 0.5 km/h (0 Bft) O-SO 1.6 C 3.1 C
11.03.2003 07:00 3.8 C 90 % 1026.9 hPa 0.0 l/m 0.0 km/h (0 Bft) N 2.3 C 3.8 C
11.03.2003 08:00 5.3 C 84 % 1026.9 hPa 0.0 l/m 0.1 km/h (0 Bft) N 2.9 C 5.3 C
11.03.2003 09:00 8.6 C 69 % 1026.9 hPa 0.0 l/m 0.1 km/h (0 Bft) S 3.2 C 8.6 C
11.03.2003 10:00 11.3 C 51 % 1026.6 hPa 0.0 l/m 7.0 km/h (2 Bft) SO 1.5 C 11.3 C
11.03.2003 11:00 13.3 C 45 % 1025.9 hPa 0.0 l/m 11.7 km/h (2 Bft) S-SO 1.5 C 13.3 C
11.03.2003 12:00 16.4 C 38 % 1024.9 hPa 0.0 l/m 10.4 km/h (2 Bft) S-SO 2.2 C 16.4 C
11.03.2003 13:00 18.4 C 37 % 1023.8 hPa 0.0 l/m 15.5 km/h (3 Bft) SO 3.4 C 18.4 C
11.03.2003 14:00 20.0 C 35 % 1022.8 hPa 0.0 l/m 10.8 km/h (2 Bft) SO 4.1 C 20.0 C
11.03.2003 15:00 20.9 C 33 % 1022.2 hPa 0.0 l/m 8.6 km/h (2 Bft) SO 3.9 C 20.9 C
11.03.2003 16:00 20.6 C 29 % 1021.7 hPa 0.0 l/m 15.1 km/h (3 Bft) W-NW 1.9 C 20.6 C
11.03.2003 17:00 18.6 C 32 % 1021.7 hPa 0.0 l/m 10.1 km/h (2 Bft) W-NW 1.6 C 18.6 C
11.03.2003 18:00 16.1 C 39 % 1021.7 hPa 0.0 l/m 0.4 km/h (0 Bft) W 2.1 C 16.1 C
11.03.2003 19:00 14.8 C 41 % 1021.7 hPa 0.0 l/m 2.6 km/h (1 Bft) W 1.5 C 14.8 C
11.03.2003 20:00 13.6 C 44 % 1021.7 hPa 0.0 l/m 6.8 km/h (2 Bft) SO 1.4 C 13.6 C
11.03.2003 21:00 12.8 C 46 % 1021.7 hPa 0.0 l/m 2.7 km/h (1 Bft) SO 1.5 C 12.8 C
11.03.2003 22:00 12.4 C 48 % 1021.7 hPa 0.0 l/m 7.1 km/h (2 Bft) SO 1.7 C 12.4 C
11.03.2003 23:00 12.6 C 46 % 1021.7 hPa 0.0 l/m 6.1 km/h (2 Bft) S-SO 1.3 C 12.6 C
12.03.2003 00:00 11.7 C 50 % 1021.7 hPa 0.0 l/m 2.3 km/h (1 Bft) SO 1.6 C 11.7 C
12.03.2003 01:00 10.1 C 57 % 1021.7 hPa 0.0 l/m 0.1 km/h (0 Bft) N 2.0 C 10.1 C
12.03.2003 02:00 8.6 C 67 % 1021.7 hPa 0.0 l/m 0.0 km/h (0 Bft) O-NO 2.7 C 8.6 C
12.03.2003 03:00 9.9 C 59 % 1021.7 hPa 0.0 l/m 3.5 km/h (1 Bft) SO 2.2 C 9.7 C
12.03.2003 04:00 10.0 C 58 % 1021.7 hPa 0.0 l/m 2.7 km/h (1 Bft) S-SO 2.0 C 9.8 C
12.03.2003 05:00 9.9 C 58 % 1021.7 hPa 0.0 l/m 2.5 km/h (1 Bft) SO 1.9 C 9.9 C
12.03.2003 06:00 10.0 C 58 % 1021.7 hPa 0.0 l/m 6.0 km/h (2 Bft) SO 2.1 C 9.7 C
12.03.2003 07:00 10.6 C 55 % 1022.3 hPa 0.0 l/m 2.5 km/h (1 Bft) SO 1.9 C 10.6 C
12.03.2003 08:00 11.5 C 50 % 1022.8 hPa 0.0 l/m 1.6 km/h (1 Bft) W-SW 1.4 C 11.5 C
12.03.2003 09:00 12.7 C 47 % 1022.8 hPa 0.0 l/m 6.8 km/h (2 Bft) W-NW 1.7 C 12.7 C
12.03.2003 10:00 13.4 C 45 % 1022.8 hPa 0.0 l/m 17.6 km/h (3 Bft) W-NW 1.8 C 13.4 C
12.03.2003 11:00 12.8 C 48 % 1022.8 hPa 0.0 l/m 26.6 km/h (4 Bft) NW 2.1 C 12.8 C
12.03.2003 12:00 12.5 C 54 % 1022.9 hPa 0.0 l/m 26.7 km/h (4 Bft) NW 3.4 C 12.5 C
12.03.2003 13:00 11.7 C 65 % 1023.1 hPa 0.0 l/m 21.0 km/h (4 Bft) W-NW 5.2 C 11.7 C
12.03.2003 14:00 9.4 C 78 % 1024.1 hPa 0.3 l/m 7.9 km/h (2 Bft) N 5.7 C 8.6 C
12.03.2003 15:00 6.8 C 90 % 1025.2 hPa 0.3 l/m 4.7 km/h (1 Bft) SO 5.4 C 6.2 C
12.03.2003 16:00 6.9 C 96 % 1025.9 hPa 0.0 l/m 3.7 km/h (1 Bft) SO 6.3 C 6.3 C
12.03.2003 17:00 6.7 C 96 % 1026.3 hPa 0.0 l/m 2.6 km/h (1 Bft) O-SO 6.1 C 6.4 C
12.03.2003 18:00 6.2 C 96 % 1027.4 hPa 0.0 l/m 0.2 km/h (0 Bft) S 5.7 C 6.2 C
12.03.2003 19:00 6.2 C 96 % 1028.3 hPa 0.0 l/m 0.0 km/h (0 Bft) SO 5.6 C 6.2 C
12.03.2003 20:00 6.2 C 95 % 1029.0 hPa 0.0 l/m 2.5 km/h (1 Bft) SO 5.5 C 5.8 C
12.03.2003 21:00 5.7 C 94 % 1029.4 hPa 0.0 l/m 0.1 km/h (0 Bft) SO 4.7 C 5.7 C
12.03.2003 22:00 5.3 C 96 % 1030.0 hPa 0.3 l/m 0.6 km/h (0 Bft) S-SW 4.8 C 5.2 C
12.03.2003 23:00 4.6 C 100 % 1030.0 hPa 0.0 l/m 2.4 km/h (1 Bft) S-SO 4.6 C 4.3 C
13.03.2003 00:00 4.0 C 100 % 1030.0 hPa 0.0 l/m 1.2 km/h (1 Bft) SO 4.0 C 4.0 C
13.03.2003 01:00 4.2 C 100 % 1031.0 hPa 0.0 l/m 0.0 km/h (0 Bft) N 4.2 C 4.2 C
13.03.2003 02:00 4.1 C 100 % 1031.1 hPa 0.0 l/m 0.4 km/h (0 Bft) SO 4.1 C 4.1 C
13.03.2003 03:00 4.0 C 100 % 1030.9 hPa 0.0 l/m 0.0 km/h (0 Bft) N 4.0 C 4.0 C
13.03.2003 04:00 2.6 C 100 % 1031.1 hPa 0.0 l/m 0.0 km/h (0 Bft) N 2.6 C 2.6 C
13.03.2003 05:00 2.1 C 100 % 1031.1 hPa 0.0 l/m 0.2 km/h (0 Bft) O-SO 2.1 C 2.1 C
13.03.2003 06:00 2.7 C 100 % 1031.1 hPa 0.0 l/m 0.0 km/h (0 Bft) N 2.7 C 2.7 C
13.03.2003 07:00 3.3 C 99 % 1031.7 hPa 0.0 l/m 0.0 km/h (0 Bft) N 3.1 C 3.3 C
13.03.2003 08:00 4.2 C 96 % 1032.1 hPa 0.0 l/m 0.1 km/h (0 Bft) N 3.7 C 4.2 C
13.03.2003 09:00 6.2 C 78 % 1032.1 hPa 0.0 l/m 4.4 km/h (1 Bft) O-NO 2.7 C 5.3 C
13.03.2003 10:00 7.7 C 66 % 1032.1 hPa 0.0 l/m 9.5 km/h (2 Bft) O 1.8 C 6.3 C
13.03.2003 11:00 9.8 C 58 % 1031.6 hPa 0.0 l/m 18.4 km/h (3 Bft) O-SO 1.8 C 8.2 C
13.03.2003 12:00 8.8 C 58 % 1031.1 hPa 0.0 l/m 6.9 km/h (2 Bft) O-SO 1.0 C 7.8 C
13.03.2003 13:00 9.9 C 54 % 1031.1 hPa 0.0 l/m 13.2 km/h (3 Bft) O-SO 1.1 C 8.8 C
13.03.2003 14:00 10.2 C 50 % 1030.6 hPa 0.0 l/m 19.8 km/h (4 Bft) O-SO 0.3 C 9.0 C
13.03.2003 15:00 10.3 C 48 % 1030.0 hPa 0.0 l/m 15.1 km/h (3 Bft) O-SO -0.2 C 9.1 C
13.03.2003 16:00 10.4 C 46 % 1030.0 hPa 0.0 l/m 11.6 km/h (2 Bft) O-SO -0.8 C 10.4 C
13.03.2003 17:00 9.0 C 47 % 1030.0 hPa 0.0 l/m 5.9 km/h (2 Bft) O-SO -1.6 C 8.2 C
13.03.2003 18:00 7.7 C 49 % 1030.0 hPa 0.0 l/m 4.6 km/h (1 Bft) N-NO -2.3 C 7.0 C
13.03.2003 19:00 6.3 C 51 % 1030.5 hPa 0.0 l/m 5.5 km/h (1 Bft) N-NO -3.1 C 5.3 C
13.03.2003 20:00 4.7 C 53 % 1031.1 hPa 0.0 l/m 4.0 km/h (1 Bft) O-NO -4.0 C 4.0 C
13.03.2003 21:00 3.9 C 59 % 1031.7 hPa 0.0 l/m 8.6 km/h (2 Bft) O -3.4 C 2.0 C
13.03.2003 22:00 3.3 C 60 % 1032.1 hPa 0.0 l/m 5.8 km/h (2 Bft) O -3.8 C 2.2 C
13.03.2003 23:00 2.3 C 56 % 1032.1 hPa 0.0 l/m 5.1 km/h (1 Bft) NO -5.5 C 1.1 C
14.03.2003 00:00 1.3 C 60 % 1031.5 hPa 0.0 l/m 1.1 km/h (1 Bft) O-NO -5.7 C 1.3 C
14.03.2003 01:00 0.4 C 65 % 1031.1 hPa 0.0 l/m 1.1 km/h (1 Bft) NO -5.3 C 0.4 C
14.03.2003 02:00 0.2 C 68 % 1031.0 hPa 0.0 l/m 3.5 km/h (1 Bft) NO -4.9 C -0.7 C
14.03.2003 03:00 0.0 C 68 % 1030.0 hPa 0.0 l/m 4.0 km/h (1 Bft) N-NO -5.2 C -0.9 C
14.03.2003 04:00 -0.1 C 67 % 1030.0 hPa 0.0 l/m 4.9 km/h (1 Bft) O -5.5 C -1.5 C
14.03.2003 05:00 -0.4 C 68 % 1030.0 hPa 0.0 l/m 5.9 km/h (2 Bft) O -5.5 C -2.1 C
14.03.2003 06:00 -0.5 C 67 % 1030.0 hPa 0.0 l/m 8.5 km/h (2 Bft) NO -5.9 C -3.1 C
14.03.2003 07:00 -0.3 C 63 % 1030.9 hPa 0.0 l/m 4.3 km/h (1 Bft) NO -6.4 C -1.4 C
14.03.2003 08:00 1.2 C 57 % 1031.1 hPa 0.0 l/m 9.2 km/h (2 Bft) O -6.4 C -1.3 C
14.03.2003 09:00 2.2 C 53 % 1030.3 hPa 0.0 l/m 10.6 km/h (2 Bft) O -6.3 C -0.4 C
14.03.2003 10:00 3.8 C 53 % 1030.0 hPa 0.0 l/m 16.8 km/h (3 Bft) O-SO -4.9 C 0.2 C
14.03.2003 11:00 5.1 C 42 % 1029.7 hPa 0.0 l/m 15.4 km/h (3 Bft) O-NO -6.7 C 1.9 C
14.03.2003 12:00 6.8 C 37 % 1029.0 hPa 0.0 l/m 22.1 km/h (4 Bft) O-SO -7.0 C 3.6 C
14.03.2003 13:00 7.2 C 29 % 1028.5 hPa 0.0 l/m 23.8 km/h (4 Bft) O -9.7 C 3.6 C
14.03.2003 14:00 7.6 C 28 % 1028.0 hPa 0.0 l/m 18.2 km/h (3 Bft) O-SO -9.7 C 4.8 C
14.03.2003 15:00 7.9 C 38 % 1028.0 hPa 0.0 l/m 15.4 km/h (3 Bft) O -5.7 C 5.4 C
14.03.2003 16:00 7.7 C 43 % 1028.0 hPa 0.0 l/m 14.2 km/h (3 Bft) O-SO -4.1 C 5.5 C
14.03.2003 17:00 6.5 C 47 % 1028.1 hPa 0.0 l/m 17.4 km/h (3 Bft) O-SO -3.9 C 3.5 C
14.03.2003 18:00 4.8 C 51 % 1029.0 hPa 0.0 l/m 19.5 km/h (3 Bft) O -4.3 C 1.1 C
14.03.2003 19:00 3.5 C 58 % 1029.6 hPa 0.0 l/m 8.8 km/h (2 Bft) O -4.0 C 1.3 C
14.03.2003 20:00 2.3 C 63 % 1030.0 hPa 0.0 l/m 7.9 km/h (2 Bft) O -4.0 C 0.3 C
14.03.2003 21:00 1.6 C 65 % 1031.1 hPa 0.0 l/m 6.9 km/h (2 Bft) O -4.3 C -0.3 C
14.03.2003 22:00 1.0 C 68 % 1031.1 hPa 0.0 l/m 9.3 km/h (2 Bft) O-SO -4.3 C -1.2 C
14.03.2003 23:00 0.5 C 70 % 1031.1 hPa 0.0 l/m 3.8 km/h (1 Bft) NO -4.4 C -0.5 C
15.03.2003 00:00 0.3 C 71 % 1031.1 hPa 0.0 l/m 5.1 km/h (1 Bft) O -4.3 C -1.1 C
15.03.2003 01:00 -0.1 C 74 % 1031.1 hPa 0.0 l/m 1.6 km/h (1 Bft) O-SO -4.1 C -0.5 C
15.03.2003 02:00 -0.2 C 77 % 1031.1 hPa 0.0 l/m 2.5 km/h (1 Bft) O-SO -3.8 C -0.8 C
15.03.2003 03:00 -0.3 C 79 % 1031.8 hPa 0.0 l/m 5.1 km/h (1 Bft) NO -3.5 C -1.5 C
15.03.2003 04:00 -0.2 C 79 % 1031.9 hPa 0.0 l/m 5.0 km/h (1 Bft) NO -3.4 C -1.5 C
15.03.2003 05:00 -0.2 C 78 % 1032.5 hPa 0.0 l/m 5.6 km/h (1 Bft) O -3.6 C -1.6 C
15.03.2003 06:00 -0.2 C 76 % 1033.0 hPa 0.0 l/m 10.0 km/h (2 Bft) NO -4.0 C -3.2 C
15.03.2003 07:00 0.1 C 74 % 1034.0 hPa 0.0 l/m 7.8 km/h (2 Bft) O-SO -4.0 C -2.0 C
15.03.2003 08:00 1.3 C 66 % 1034.5 hPa 0.0 l/m 8.7 km/h (2 Bft) O -4.4 C -0.9 C
15.03.2003 09:00 2.8 C 58 % 1035.0 hPa 0.0 l/m 13.0 km/h (3 Bft) O -4.6 C -0.4 C
15.03.2003 10:00 5.3 C 49 % 1035.0 hPa 0.0 l/m 27.4 km/h (4 Bft) O-SO -4.4 C 0.9 C
15.03.2003 11:00 5.6 C 45 % 1035.0 hPa 0.0 l/m 37.7 km/h (5 Bft) O-SO -5.4 C 0.4 C
15.03.2003 12:00 7.1 C 43 % 1035.9 hPa 0.0 l/m 29.0 km/h (5 Bft) O-SO -4.8 C 3.0 C
15.03.2003 13:00 8.0 C 43 % 1036.0 hPa 0.0 l/m 30.7 km/h (5 Bft) O-SO -3.9 C 4.1 C
15.03.2003 14:00 7.9 C 42 % 1035.5 hPa 0.0 l/m 26.2 km/h (4 Bft) O-SO -4.1 C 4.4 C
15.03.2003 15:00 7.8 C 43 % 1036.0 hPa 0.0 l/m 16.9 km/h (3 Bft) O -4.1 C 5.1 C
15.03.2003 16:00 7.0 C 45 % 1036.1 hPa 0.0 l/m 17.8 km/h (3 Bft) O -4.0 C 4.1 C
15.03.2003 17:00 5.8 C 48 % 1037.1 hPa 0.0 l/m 7.5 km/h (2 Bft) O -4.3 C 4.5 C
15.03.2003 18:00 3.7 C 55 % 1038.0 hPa 0.0 l/m 11.6 km/h (2 Bft) O -4.5 C 1.2 C
15.03.2003 19:00 2.2 C 60 % 1038.9 hPa 0.0 l/m 5.3 km/h (1 Bft) O -4.8 C 1.0 C
15.03.2003 20:00 1.5 C 62 % 1039.2 hPa 0.0 l/m 7.0 km/h (2 Bft) O -5.1 C -0.2 C
15.03.2003 21:00 0.8 C 63 % 1040.0 hPa 0.0 l/m 2.4 km/h (1 Bft) O -5.4 C 0.2 C
15.03.2003 22:00 0.2 C 68 % 1040.2 hPa 0.0 l/m 2.0 km/h (1 Bft) O-SO -5.0 C -0.3 C
15.03.2003 23:00 -0.3 C 71 % 1039.7 hPa 0.0 l/m 1.0 km/h (0 Bft) O-SO -5.0 C -0.4 C
16.03.2003 00:00 -0.6 C 73 % 1039.7 hPa 0.0 l/m 1.7 km/h (1 Bft) NO -4.8 C -0.8 C
16.03.2003 01:00 -0.9 C 76 % 1039.4 hPa 0.0 l/m 4.2 km/h (1 Bft) O -4.6 C -1.9 C
16.03.2003 02:00 -0.9 C 75 % 1039.3 hPa 0.0 l/m 3.1 km/h (1 Bft) O -4.8 C -1.7 C
16.03.2003 03:00 -0.9 C 71 % 1039.2 hPa 0.0 l/m 4.1 km/h (1 Bft) O-NO -5.5 C -2.0 C
16.03.2003 04:00 -1.1 C 70 % 1039.2 hPa 0.0 l/m 2.8 km/h (1 Bft) O-SO -5.9 C -1.8 C
16.03.2003 05:00 -1.1 C 71 % 1039.2 hPa 0.0 l/m 4.7 km/h (1 Bft) O-SO -5.7 C -2.5 C
16.03.2003 06:00 -0.9 C 70 % 1040.2 hPa 0.0 l/m 7.3 km/h (2 Bft) O-NO -5.7 C -3.2 C
16.03.2003 07:00 -0.2 C 68 % 1040.2 hPa 0.0 l/m 2.3 km/h (1 Bft) O-NO -5.4 C -0.7 C
16.03.2003 08:00 1.3 C 62 % 1040.2 hPa 0.0 l/m 9.6 km/h (2 Bft) O-NO -5.2 C -1.2 C
16.03.2003 09:00 3.1 C 55 % 1040.2 hPa 0.0 l/m 11.8 km/h (2 Bft) O-NO -5.1 C 0.4 C
16.03.2003 10:00 4.9 C 49 % 1040.2 hPa 0.0 l/m 13.5 km/h (3 Bft) O -5.0 C 2.3 C
16.03.2003 11:00 6.5 C 45 % 1039.6 hPa 0.0 l/m 16.9 km/h (3 Bft) O -4.7 C 3.6 C
16.03.2003 12:00 8.5 C 42 % 1039.2 hPa 0.0 l/m 11.8 km/h (2 Bft) O-SO -3.7 C 6.7 C
16.03.2003 13:00 9.3 C 40 % 1039.2 hPa 0.0 l/m 20.2 km/h (4 Bft) O-SO -3.5 C 6.6 C
16.03.2003 14:00 9.8 C 39 % 1038.9 hPa 0.0 l/m 16.1 km/h (3 Bft) O-SO -3.5 C 7.8 C
16.03.2003 15:00 10.0 C 39 % 1038.1 hPa 0.0 l/m 17.0 km/h (3 Bft) O-SO -3.2 C 8.6 C
16.03.2003 16:00 9.6 C 41 % 1038.1 hPa 0.0 l/m 20.6 km/h (4 Bft) O-SO -3.2 C 6.8 C
16.03.2003 17:00 8.9 C 44 % 1038.1 hPa 0.0 l/m 17.1 km/h (3 Bft) O -2.8 C 6.3 C
16.03.2003 18:00 7.4 C 49 % 1038.7 hPa 0.0 l/m 8.4 km/h (2 Bft) O -2.7 C 6.0 C
16.03.2003 19:00 5.8 C 53 % 1039.3 hPa 0.0 l/m 7.4 km/h (2 Bft) O -3.1 C 4.5 C
16.03.2003 20:00 4.7 C 58 % 1040.2 hPa 0.0 l/m 6.3 km/h (2 Bft) O -2.8 C 3.5 C
16.03.2003 21:00 3.9 C 61 % 1039.8 hPa 0.0 l/m 4.4 km/h (1 Bft) O-NO -2.9 C 3.0 C
16.03.2003 22:00 3.1 C 61 % 1039.3 hPa 0.0 l/m 1.1 km/h (0 Bft) NO -3.6 C 3.1 C
16.03.2003 23:00 2.2 C 63 % 1039.3 hPa 0.0 l/m 1.5 km/h (1 Bft) N -4.0 C 1.8 C
Min-Datum _ 10.03.03 11.03.03 11.03.03 - 10.03.03 - 14.03.03 16.03.03
_ Min-Zeit 07:20 16:38 15:26 - 00:02 - 13:34 04:52
Minimum _ -2.0 C 25 % 1021.7 hPa - 0.0 km/h (0 Bft) - -10.8 C -6.2 C
Max-Datum _ 11.03.03 12.03.03 15.03.03 12.03.03 15.03.03 - 12.03.03 11.03.03
_ Max-Zeit 15:08 23:22 21:12 14:50 13:06 - 13:56 15:08
Maximum _ 21.2 C 100 % 1040.2 hPa 0.3 l/m 58.4 km/h
O-SO (7 Bft)
- 6.7 C 21.2 C
Durchschnitt _ 6.1 C 63 % 1030.5 hPa #0.9 l/m 7.2 km/h (2 Bft) O-SO -1.1 C 5.1 C

Durchschnitt Minimum Temp.5.3 C
Durchschnitt Maximum Temp.6.9 C
© Kaiko 2003